Pincher Creek, Canada
Current Conditions -  °F | °C
As of 3:00 PM on Thursday 18 Dec 2014 (Local Time) from CZPC Reporting Station
Clear Clear  
Wind Chill: 31°   Ceiling: Unl
Heat Index: 41°   Visibility: 9mi
Dew Point: 28°   Wind: 22mph
Humidity: 61%   Direction: 260°W
Pressure: 29.81"   Gusts: 28mph
Location:  49.49°N, 113.95°W
Report Text: CZPC 182200Z AUTO 26019G24KT 9SM CLR 05/M02 A2981 RMK SLP127
Loading
Personal Weather Stations






























Interactive Weather Map New forecast layout! Learn more

10-Day Weather Forecast

Advertisements
Track Severe Weather on mobile